Las Lenas/Los Molles, Argentina
Current Conditions -  °F | °C
As of 3:00 PM on Monday 26 Jan 2015 (Local Time) from SCIC Reporting Station
Clear Clear  
Wind Chill: 86°   Ceiling: Unl
Heat Index: 86°   Visibility: 6mi
Dew Point: 57°   Wind: 9mph
Humidity: 37%   Direction: 190°S
Pressure: 29.85"   Gusts: NA
Location:  34.97°S, 68.65°W
Report Text: SCIC 261800Z 19008KT CAVOK 30/14 Q1011
Loading
Personal Weather Stations






























Interactive Weather Map New forecast layout! Learn more

10-Day Weather Forecast

Advertisements
Track Severe Weather on mobile